sensor_id;sensor_type;location;lat;lon;timestamp;temperature;humidity
21425;DHT22;10873;51.132;16.848;2022-11-20T00:00:12;24.20;40.00
21425;DHT22;10873;51.132;16.848;2022-11-20T00:02:59;24.20;40.00
21425;DHT22;10873;51.132;16.848;2022-11-20T00:05:26;24.20;39.90
21425;DHT22;10873;51.132;16.848;2022-11-20T00:07:51;24.20;39.90
21425;DHT22;10873;51.132;16.848;2022-11-20T00:10:18;24.20;39.90
21425;DHT22;10873;51.132;16.848;2022-11-20T00:12:43;24.20;39.90
21425;DHT22;10873;51.132;16.848;2022-11-20T00:15:10;24.20;39.80
21425;DHT22;10873;51.132;16.848;2022-11-20T00:17:36;24.10;39.70
21425;DHT22;10873;51.132;16.848;2022-11-20T00:20:04;24.10;39.70
21425;DHT22;10873;51.132;16.848;2022-11-20T00:22:30;24.10;39.70
21425;DHT22;10873;51.132;16.848;2022-11-20T00:24:56;24.10;39.70
21425;DHT22;10873;51.132;16.848;2022-11-20T00:27:23;24.10;39.70
21425;DHT22;10873;51.132;16.848;2022-11-20T00:29:49;24.10;39.70
21425;DHT22;10873;51.132;16.848;2022-11-20T00:32:15;24.00;39.60
21425;DHT22;10873;51.132;16.848;2022-11-20T00:34:41;24.00;39.60
21425;DHT22;10873;51.132;16.848;2022-11-20T00:37:09;24.00;39.60
21425;DHT22;10873;51.132;16.848;2022-11-20T00:39:35;24.00;39.60
21425;DHT22;10873;51.132;16.848;2022-11-20T00:42:01;24.00;39.60
21425;DHT22;10873;51.132;16.848;2022-11-20T00:44:27;24.00;39.60
21425;DHT22;10873;51.132;16.848;2022-11-20T00:46:53;24.00;39.60
21425;DHT22;10873;51.132;16.848;2022-11-20T00:49:19;24.00;39.60
21425;DHT22;10873;51.132;16.848;2022-11-20T00:51:45;24.00;39.60
21425;DHT22;10873;51.132;16.848;2022-11-20T00:54:12;23.90;39.50
21425;DHT22;10873;51.132;16.848;2022-11-20T00:56:38;23.90;39.50
21425;DHT22;10873;51.132;16.848;2022-11-20T00:59:04;24.00;39.60
21425;DHT22;10873;51.132;16.848;2022-11-20T01:01:30;24.00;39.60
21425;DHT22;10873;51.132;16.848;2022-11-20T01:03:58;24.00;39.60
21425;DHT22;10873;51.132;16.848;2022-11-20T01:06:26;24.00;39.60
21425;DHT22;10873;51.132;16.848;2022-11-20T01:08:54;24.00;39.60
21425;DHT22;10873;51.132;16.848;2022-11-20T01:11:23;24.00;39.50
21425;DHT22;10873;51.132;16.848;2022-11-20T01:13:50;24.00;39.40
21425;DHT22;10873;51.132;16.848;2022-11-20T01:16:18;24.00;39.50
21425;DHT22;10873;51.132;16.848;2022-11-20T01:18:46;24.00;39.40
21425;DHT22;10873;51.132;16.848;2022-11-20T01:21:14;24.00;39.40
21425;DHT22;10873;51.132;16.848;2022-11-20T01:23:41;24.00;39.40
21425;DHT22;10873;51.132;16.848;2022-11-20T01:26:08;23.90;39.30
21425;DHT22;10873;51.132;16.848;2022-11-20T01:28:37;24.00;39.30
21425;DHT22;10873;51.132;16.848;2022-11-20T01:31:11;24.00;39.20
21425;DHT22;10873;51.132;16.848;2022-11-20T01:33:39;23.90;39.10
21425;DHT22;10873;51.132;16.848;2022-11-20T01:36:06;23.90;39.10
21425;DHT22;10873;51.132;16.848;2022-11-20T01:38:33;23.90;39.00
21425;DHT22;10873;51.132;16.848;2022-11-20T01:40:59;23.90;39.20
21425;DHT22;10873;51.132;16.848;2022-11-20T01:43:25;23.90;39.30
21425;DHT22;10873;51.132;16.848;2022-11-20T01:46:17;23.90;40.00
21425;DHT22;10873;51.132;16.848;2022-11-20T01:48:48;23.90;39.50
21425;DHT22;10873;51.132;16.848;2022-11-20T01:51:21;23.80;39.50
21425;DHT22;10873;51.132;16.848;2022-11-20T01:53:48;23.90;39.50
21425;DHT22;10873;51.132;16.848;2022-11-20T01:56:15;23.80;39.10
21425;DHT22;10873;51.132;16.848;2022-11-20T01:58:45;23.80;39.10
21425;DHT22;10873;51.132;16.848;2022-11-20T02:01:13;23.80;39.10
21425;DHT22;10873;51.132;16.848;2022-11-20T02:03:41;23.80;39.00
21425;DHT22;10873;51.132;16.848;2022-11-20T02:06:11;23.80;39.30
21425;DHT22;10873;51.132;16.848;2022-11-20T02:08:39;23.80;39.40
21425;DHT22;10873;51.132;16.848;2022-11-20T02:11:05;23.80;39.50
21425;DHT22;10873;51.132;16.848;2022-11-20T02:13:31;23.80;39.50
21425;DHT22;10873;51.132;16.848;2022-11-20T02:16:16;23.80;39.50
21425;DHT22;10873;51.132;16.848;2022-11-20T02:18:45;23.80;39.30
21425;DHT22;10873;51.132;16.848;2022-11-20T02:21:26;23.80;39.20
21425;DHT22;10873;51.132;16.848;2022-11-20T02:24:00;23.70;39.80
21425;DHT22;10873;51.132;16.848;2022-11-20T02:26:28;23.70;39.10
21425;DHT22;10873;51.132;16.848;2022-11-20T02:28:56;23.70;39.20
21425;DHT22;10873;51.132;16.848;2022-11-20T02:31:24;23.70;39.30
21425;DHT22;10873;51.132;16.848;2022-11-20T02:33:54;23.70;39.40
21425;DHT22;10873;51.132;16.848;2022-11-20T02:36:21;23.70;39.50
21425;DHT22;10873;51.132;16.848;2022-11-20T02:38:49;23.70;39.50
21425;DHT22;10873;51.132;16.848;2022-11-20T02:41:16;23.70;39.40
21425;DHT22;10873;51.132;16.848;2022-11-20T02:43:43;23.70;39.40
21425;DHT22;10873;51.132;16.848;2022-11-20T02:46:09;23.70;39.20
21425;DHT22;10873;51.132;16.848;2022-11-20T02:48:35;23.70;39.20
21425;DHT22;10873;51.132;16.848;2022-11-20T02:51:01;23.70;39.10
21425;DHT22;10873;51.132;16.848;2022-11-20T02:53:27;23.70;39.20
21425;DHT22;10873;51.132;16.848;2022-11-20T02:55:53;23.70;39.40
21425;DHT22;10873;51.132;16.848;2022-11-20T02:58:21;23.70;39.40
21425;DHT22;10873;51.132;16.848;2022-11-20T03:00:47;23.60;39.40
21425;DHT22;10873;51.132;16.848;2022-11-20T03:03:13;23.60;39.40
21425;DHT22;10873;51.132;16.848;2022-11-20T03:05:39;23.70;39.30
21425;DHT22;10873;51.132;16.848;2022-11-20T03:08:05;23.60;39.10
21425;DHT22;10873;51.132;16.848;2022-11-20T03:10:31;23.60;39.70
21425;DHT22;10873;51.132;16.848;2022-11-20T03:12:57;23.70;39.00
21425;DHT22;10873;51.132;16.848;2022-11-20T03:15:24;23.60;39.60
21425;DHT22;10873;51.132;16.848;2022-11-20T03:17:53;23.60;39.00
21425;DHT22;10873;51.132;16.848;2022-11-20T03:20:19;23.60;39.10
21425;DHT22;10873;51.132;16.848;2022-11-20T03:22:46;23.60;39.20
21425;DHT22;10873;51.132;16.848;2022-11-20T03:25:11;23.60;39.30
21425;DHT22;10873;51.132;16.848;2022-11-20T03:27:38;23.60;39.30
21425;DHT22;10873;51.132;16.848;2022-11-20T03:30:04;23.60;39.30
21425;DHT22;10873;51.132;16.848;2022-11-20T03:32:32;23.60;39.10
21425;DHT22;10873;51.132;16.848;2022-11-20T03:34:58;23.60;39.10
21425;DHT22;10873;51.132;16.848;2022-11-20T03:37:25;23.60;39.00
21425;DHT22;10873;51.132;16.848;2022-11-20T03:39:51;23.60;39.00
21425;DHT22;10873;51.132;16.848;2022-11-20T03:42:17;23.60;39.00
21425;DHT22;10873;51.132;16.848;2022-11-20T03:45:01;23.60;39.30
21425;DHT22;10873;51.132;16.848;2022-11-20T03:47:28;23.60;39.40
21425;DHT22;10873;51.132;16.848;2022-11-20T03:49:55;23.60;39.50
21425;DHT22;10873;51.132;16.848;2022-11-20T03:52:21;23.60;39.50
21425;DHT22;10873;51.132;16.848;2022-11-20T03:54:47;23.60;39.50
21425;DHT22;10873;51.132;16.848;2022-11-20T03:57:13;23.60;39.30
21425;DHT22;10873;51.132;16.848;2022-11-20T03:59:39;23.60;39.10
21425;DHT22;10873;51.132;16.848;2022-11-20T04:02:05;23.60;39.00
21425;DHT22;10873;51.132;16.848;2022-11-20T04:04:31;23.60;39.00
21425;DHT22;10873;51.132;16.848;2022-11-20T04:06:59;23.60;39.30
21425;DHT22;10873;51.132;16.848;2022-11-20T04:09:25;23.60;39.40
21425;DHT22;10873;51.132;16.848;2022-11-20T04:11:51;23.50;39.40
21425;DHT22;10873;51.132;16.848;2022-11-20T04:14:17;23.60;39.40
21425;DHT22;10873;51.132;16.848;2022-11-20T04:16:43;23.60;39.50
21425;DHT22;10873;51.132;16.848;2022-11-20T04:19:10;23.50;39.30
21425;DHT22;10873;51.132;16.848;2022-11-20T04:21:37;23.50;39.10
21425;DHT22;10873;51.132;16.848;2022-11-20T04:24:05;23.60;39.10
21425;DHT22;10873;51.132;16.848;2022-11-20T04:26:32;23.60;39.00
21425;DHT22;10873;51.132;16.848;2022-11-20T04:28:58;23.60;39.00
21425;DHT22;10873;51.132;16.848;2022-11-20T04:31:27;23.60;39.10
21425;DHT22;10873;51.132;16.848;2022-11-20T04:33:53;23.60;39.20
21425;DHT22;10873;51.132;16.848;2022-11-20T04:36:21;23.50;39.20
21425;DHT22;10873;51.132;16.848;2022-11-20T04:38:51;23.60;39.30
21425;DHT22;10873;51.132;16.848;2022-11-20T04:41:19;23.60;39.30
21425;DHT22;10873;51.132;16.848;2022-11-20T04:43:46;23.60;39.20
21425;DHT22;10873;51.132;16.848;2022-11-20T04:46:15;23.60;39.10
21425;DHT22;10873;51.132;16.848;2022-11-20T04:48:41;23.60;39.00
21425;DHT22;10873;51.132;16.848;2022-11-20T04:51:07;23.60;39.00
21425;DHT22;10873;51.132;16.848;2022-11-20T04:53:33;23.60;38.90
21425;DHT22;10873;51.132;16.848;2022-11-20T04:56:00;23.60;38.90
21425;DHT22;10873;51.132;16.848;2022-11-20T04:58:28;23.50;39.00
21425;DHT22;10873;51.132;16.848;2022-11-20T05:01:00;23.60;39.10
21425;DHT22;10873;51.132;16.848;2022-11-20T05:03:26;23.50;39.10
21425;DHT22;10873;51.132;16.848;2022-11-20T05:05:52;23.60;39.10
21425;DHT22;10873;51.132;16.848;2022-11-20T05:08:18;23.60;39.10
21425;DHT22;10873;51.132;16.848;2022-11-20T05:10:44;23.60;39.00
21425;DHT22;10873;51.132;16.848;2022-11-20T05:13:10;23.60;38.90
21425;DHT22;10873;51.132;16.848;2022-11-20T05:15:38;23.60;38.80
21425;DHT22;10873;51.132;16.848;2022-11-20T05:18:04;23.60;38.80
21425;DHT22;10873;51.132;16.848;2022-11-20T05:20:30;23.60;38.80
21425;DHT22;10873;51.132;16.848;2022-11-20T05:22:56;23.60;38.80
21425;DHT22;10873;51.132;16.848;2022-11-20T05:25:23;23.60;39.00
21425;DHT22;10873;51.132;16.848;2022-11-20T05:27:49;23.60;39.00
21425;DHT22;10873;51.132;16.848;2022-11-20T05:30:15;23.60;39.00
21425;DHT22;10873;51.132;16.848;2022-11-20T05:32:42;23.60;39.00
21425;DHT22;10873;51.132;16.848;2022-11-20T05:35:08;23.60;38.90
21425;DHT22;10873;51.132;16.848;2022-11-20T05:37:34;23.60;38.80
21425;DHT22;10873;51.132;16.848;2022-11-20T05:40:00;23.60;38.70
21425;DHT22;10873;51.132;16.848;2022-11-20T05:42:29;23.60;38.80
21425;DHT22;10873;51.132;16.848;2022-11-20T05:44:59;23.60;38.70
21425;DHT22;10873;51.132;16.848;2022-11-20T05:47:26;23.60;38.70
21425;DHT22;10873;51.132;16.848;2022-11-20T05:49:53;23.60;38.80
21425;DHT22;10873;51.132;16.848;2022-11-20T05:52:19;23.60;38.80
21425;DHT22;10873;51.132;16.848;2022-11-20T05:54:46;23.60;38.90
21425;DHT22;10873;51.132;16.848;2022-11-20T05:57:11;23.60;38.90
21425;DHT22;10873;51.132;16.848;2022-11-20T05:59:38;23.60;38.80
21425;DHT22;10873;51.132;16.848;2022-11-20T06:02:04;23.60;38.70
21425;DHT22;10873;51.132;16.848;2022-11-20T06:04:32;23.60;38.70
21425;DHT22;10873;51.132;16.848;2022-11-20T06:06:59;23.60;38.70
21425;DHT22;10873;51.132;16.848;2022-11-20T06:09:26;23.60;38.60
21425;DHT22;10873;51.132;16.848;2022-11-20T06:11:52;23.60;38.60
21425;DHT22;10873;51.132;16.848;2022-11-20T06:14:18;23.60;38.60
21425;DHT22;10873;51.132;16.848;2022-11-20T06:16:44;23.60;38.70
21425;DHT22;10873;51.132;16.848;2022-11-20T06:19:10;23.60;38.70
21425;DHT22;10873;51.132;16.848;2022-11-20T06:21:36;23.60;38.80
21425;DHT22;10873;51.132;16.848;2022-11-20T06:24:04;23.60;38.70
21425;DHT22;10873;51.132;16.848;2022-11-20T06:26:30;23.60;38.60
21425;DHT22;10873;51.132;16.848;2022-11-20T06:28:56;23.70;38.60
21425;DHT22;10873;51.132;16.848;2022-11-20T06:31:23;23.60;38.60
21425;DHT22;10873;51.132;16.848;2022-11-20T06:33:50;23.60;38.50
21425;DHT22;10873;51.132;16.848;2022-11-20T06:36:19;23.70;38.60
21425;DHT22;10873;51.132;16.848;2022-11-20T06:38:46;23.70;38.60
21425;DHT22;10873;51.132;16.848;2022-11-20T06:41:14;23.60;38.70
21425;DHT22;10873;51.132;16.848;2022-11-20T06:43:41;23.70;38.70
21425;DHT22;10873;51.132;16.848;2022-11-20T06:46:09;23.60;38.80
21425;DHT22;10873;51.132;16.848;2022-11-20T06:48:35;23.60;38.80
21425;DHT22;10873;51.132;16.848;2022-11-20T06:51:03;23.70;38.80
21425;DHT22;10873;51.132;16.848;2022-11-20T06:53:29;23.70;38.70
21425;DHT22;10873;51.132;16.848;2022-11-20T06:55:56;23.70;38.50
21425;DHT22;10873;51.132;16.848;2022-11-20T06:58:26;23.70;38.40
21425;DHT22;10873;51.132;16.848;2022-11-20T07:00:53;23.70;38.30
21425;DHT22;10873;51.132;16.848;2022-11-20T07:03:19;23.60;38.80
21425;DHT22;10873;51.132;16.848;2022-11-20T07:05:45;23.70;38.20
21425;DHT22;10873;51.132;16.848;2022-11-20T07:08:12;23.70;38.30
21425;DHT22;10873;51.132;16.848;2022-11-20T07:10:38;23.60;38.40
21425;DHT22;10873;51.132;16.848;2022-11-20T07:13:04;23.70;38.40
21425;DHT22;10873;51.132;16.848;2022-11-20T07:15:31;23.70;38.50
21425;DHT22;10873;51.132;16.848;2022-11-20T07:17:58;23.70;38.60
21425;DHT22;10873;51.132;16.848;2022-11-20T07:20:24;23.70;38.70
21425;DHT22;10873;51.132;16.848;2022-11-20T07:22:53;23.70;38.70
21425;DHT22;10873;51.132;16.848;2022-11-20T07:25:20;23.70;38.80
21425;DHT22;10873;51.132;16.848;2022-11-20T07:27:46;23.70;38.90
21425;DHT22;10873;51.132;16.848;2022-11-20T07:30:13;23.70;39.00
21425;DHT22;10873;51.132;16.848;2022-11-20T07:32:41;23.70;39.00
21425;DHT22;10873;51.132;16.848;2022-11-20T07:35:07;23.70;39.10
21425;DHT22;10873;51.132;16.848;2022-11-20T07:37:34;23.70;39.30
21425;DHT22;10873;51.132;16.848;2022-11-20T07:40:00;23.70;39.50
21425;DHT22;10873;51.132;16.848;2022-11-20T07:42:26;23.70;39.60
21425;DHT22;10873;51.132;16.848;2022-11-20T07:44:52;23.70;39.70
21425;DHT22;10873;51.132;16.848;2022-11-20T07:47:18;23.70;39.70
21425;DHT22;10873;51.132;16.848;2022-11-20T07:49:45;23.70;39.70
21425;DHT22;10873;51.132;16.848;2022-11-20T07:52:12;23.70;39.80
21425;DHT22;10873;51.132;16.848;2022-11-20T07:54:37;23.70;39.70
21425;DHT22;10873;51.132;16.848;2022-11-20T07:57:03;23.70;39.70
21425;DHT22;10873;51.132;16.848;2022-11-20T07:59:29;23.80;39.80
21425;DHT22;10873;51.132;16.848;2022-11-20T08:01:55;23.80;39.80
21425;DHT22;10873;51.132;16.848;2022-11-20T08:04:21;23.80;39.80
21425;DHT22;10873;51.132;16.848;2022-11-20T08:06:52;23.80;39.80
21425;DHT22;10873;51.132;16.848;2022-11-20T08:09:17;23.80;39.80
21425;DHT22;10873;51.132;16.848;2022-11-20T08:11:44;23.80;39.80
21425;DHT22;10873;51.132;16.848;2022-11-20T08:14:29;23.90;39.90
21425;DHT22;10873;51.132;16.848;2022-11-20T08:16:55;23.80;39.80
21425;DHT22;10873;51.132;16.848;2022-11-20T08:19:21;23.90;39.90
21425;DHT22;10873;51.132;16.848;2022-11-20T08:21:47;23.80;39.80
21425;DHT22;10873;51.132;16.848;2022-11-20T08:24:14;23.90;40.00
21425;DHT22;10873;51.132;16.848;2022-11-20T08:26:40;23.90;40.00
21425;DHT22;10873;51.132;16.848;2022-11-20T08:29:06;23.90;40.00
21425;DHT22;10873;51.132;16.848;2022-11-20T08:31:33;23.80;40.00
21425;DHT22;10873;51.132;16.848;2022-11-20T08:34:20;23.90;41.30
21425;DHT22;10873;51.132;16.848;2022-11-20T08:36:46;23.80;42.70
21425;DHT22;10873;51.132;16.848;2022-11-20T08:39:14;23.80;43.00
21425;DHT22;10873;51.132;16.848;2022-11-20T08:41:40;23.80;43.30
21425;DHT22;10873;51.132;16.848;2022-11-20T08:44:07;23.80;43.60
21425;DHT22;10873;51.132;16.848;2022-11-20T08:46:35;23.80;43.70
21425;DHT22;10873;51.132;16.848;2022-11-20T08:49:02;23.80;43.70
21425;DHT22;10873;51.132;16.848;2022-11-20T08:51:29;23.80;43.70
21425;DHT22;10873;51.132;16.848;2022-11-20T08:53:55;23.80;43.60
21425;DHT22;10873;51.132;16.848;2022-11-20T08:56:23;23.80;43.60
21425;DHT22;10873;51.132;16.848;2022-11-20T08:58:50;23.90;43.60
21425;DHT22;10873;51.132;16.848;2022-11-20T09:01:17;23.90;43.60
21425;DHT22;10873;51.132;16.848;2022-11-20T09:03:43;23.90;43.60
21425;DHT22;10873;51.132;16.848;2022-11-20T09:06:09;23.90;43.50
21425;DHT22;10873;51.132;16.848;2022-11-20T09:08:35;23.90;43.50
21425;DHT22;10873;51.132;16.848;2022-11-20T09:11:02;23.90;43.50
21425;DHT22;10873;51.132;16.848;2022-11-20T09:13:31;23.90;43.50
21425;DHT22;10873;51.132;16.848;2022-11-20T09:15:58;23.90;43.50
21425;DHT22;10873;51.132;16.848;2022-11-20T09:18:27;23.90;43.50
21425;DHT22;10873;51.132;16.848;2022-11-20T09:20:56;23.90;43.40
21425;DHT22;10873;51.132;16.848;2022-11-20T09:23:23;23.90;43.40
21425;DHT22;10873;51.132;16.848;2022-11-20T09:25:50;23.90;43.30
21425;DHT22;10873;51.132;16.848;2022-11-20T09:28:16;23.90;43.30
21425;DHT22;10873;51.132;16.848;2022-11-20T09:30:45;23.90;43.30
21425;DHT22;10873;51.132;16.848;2022-11-20T09:33:11;23.90;43.30
21425;DHT22;10873;51.132;16.848;2022-11-20T09:35:38;23.90;43.20
21425;DHT22;10873;51.132;16.848;2022-11-20T09:38:07;23.90;43.20
21425;DHT22;10873;51.132;16.848;2022-11-20T09:40:35;23.90;43.20
21425;DHT22;10873;51.132;16.848;2022-11-20T09:43:07;23.90;43.10
21425;DHT22;10873;51.132;16.848;2022-11-20T09:45:53;23.90;43.10
21425;DHT22;10873;51.132;16.848;2022-11-20T09:48:32;23.90;43.10
21425;DHT22;10873;51.132;16.848;2022-11-20T09:51:07;23.90;43.20
21425;DHT22;10873;51.132;16.848;2022-11-20T09:53:50;23.90;43.20
21425;DHT22;10873;51.132;16.848;2022-11-20T09:56:17;23.90;43.20
21425;DHT22;10873;51.132;16.848;2022-11-20T09:58:46;23.90;43.10
21425;DHT22;10873;51.132;16.848;2022-11-20T10:01:16;23.90;43.10
21425;DHT22;10873;51.132;16.848;2022-11-20T10:03:51;23.90;43.00
21425;DHT22;10873;51.132;16.848;2022-11-20T10:06:24;23.90;43.00
21425;DHT22;10873;51.132;16.848;2022-11-20T10:09:05;23.80;43.00
21425;DHT22;10873;51.132;16.848;2022-11-20T10:11:38;23.90;43.00
21425;DHT22;10873;51.132;16.848;2022-11-20T10:14:16;23.80;43.00
21425;DHT22;10873;51.132;16.848;2022-11-20T10:16:53;23.80;42.90
21425;DHT22;10873;51.132;16.848;2022-11-20T10:19:31;23.80;43.00
21425;DHT22;10873;51.132;16.848;2022-11-20T10:22:07;23.80;42.90
21425;DHT22;10873;51.132;16.848;2022-11-20T10:24:44;23.80;42.90
21425;DHT22;10873;51.132;16.848;2022-11-20T10:27:38;23.90;43.00
21425;DHT22;10873;51.132;16.848;2022-11-20T10:30:09;23.80;43.00
21425;DHT22;10873;51.132;16.848;2022-11-20T10:32:40;23.80;42.90
21425;DHT22;10873;51.132;16.848;2022-11-20T10:35:16;23.90;42.90
21425;DHT22;10873;51.132;16.848;2022-11-20T10:37:46;23.80;43.00
21425;DHT22;10873;51.132;16.848;2022-11-20T10:40:21;23.80;43.00
21425;DHT22;10873;51.132;16.848;2022-11-20T10:42:51;23.90;43.20
21425;DHT22;10873;51.132;16.848;2022-11-20T10:45:28;23.90;43.30
21425;DHT22;10873;51.132;16.848;2022-11-20T10:48:10;23.90;43.30
21425;DHT22;10873;51.132;16.848;2022-11-20T10:50:40;23.90;43.30
21425;DHT22;10873;51.132;16.848;2022-11-20T10:53:19;23.90;43.20
21425;DHT22;10873;51.132;16.848;2022-11-20T10:55:55;23.90;43.20
21425;DHT22;10873;51.132;16.848;2022-11-20T10:58:28;23.90;43.00
21425;DHT22;10873;51.132;16.848;2022-11-20T11:01:03;23.90;42.90
21425;DHT22;10873;51.132;16.848;2022-11-20T11:03:31;24.00;42.70
21425;DHT22;10873;51.132;16.848;2022-11-20T11:06:03;24.00;42.70
21425;DHT22;10873;51.132;16.848;2022-11-20T11:08:36;24.00;42.70
21425;DHT22;10873;51.132;16.848;2022-11-20T11:11:18;24.00;43.30
21425;DHT22;10873;51.132;16.848;2022-11-20T11:13:46;24.00;42.60
21425;DHT22;10873;51.132;16.848;2022-11-20T11:16:20;24.00;42.50
21425;DHT22;10873;51.132;16.848;2022-11-20T11:18:48;24.00;42.60
21425;DHT22;10873;51.132;16.848;2022-11-20T11:21:21;24.00;42.50
21425;DHT22;10873;51.132;16.848;2022-11-20T11:23:58;24.00;42.50
21425;DHT22;10873;51.132;16.848;2022-11-20T11:26:24;24.00;42.40
21425;DHT22;10873;51.132;16.848;2022-11-20T11:28:55;24.00;42.40
21425;DHT22;10873;51.132;16.848;2022-11-20T11:31:23;24.00;42.30
21425;DHT22;10873;51.132;16.848;2022-11-20T11:33:51;24.00;42.20
21425;DHT22;10873;51.132;16.848;2022-11-20T11:36:20;24.00;42.20
21425;DHT22;10873;51.132;16.848;2022-11-20T11:38:51;24.00;42.20
21425;DHT22;10873;51.132;16.848;2022-11-20T11:41:21;24.00;42.20
21425;DHT22;10873;51.132;16.848;2022-11-20T11:43:52;24.00;42.30
21425;DHT22;10873;51.132;16.848;2022-11-20T11:46:55;24.00;42.30
21425;DHT22;10873;51.132;16.848;2022-11-20T11:49:23;24.00;42.30
21425;DHT22;10873;51.132;16.848;2022-11-20T11:52:03;24.00;42.40
21425;DHT22;10873;51.132;16.848;2022-11-20T11:54:35;24.00;42.40
21425;DHT22;10873;51.132;16.848;2022-11-20T11:57:07;24.00;42.50
21425;DHT22;10873;51.132;16.848;2022-11-20T11:59:54;24.00;42.60
21425;DHT22;10873;51.132;16.848;2022-11-20T12:02:31;23.90;42.50
21425;DHT22;10873;51.132;16.848;2022-11-20T12:05:05;23.90;42.50
21425;DHT22;10873;51.132;16.848;2022-11-20T12:07:39;23.90;42.50
21425;DHT22;10873;51.132;16.848;2022-11-20T12:10:16;23.90;42.60
21425;DHT22;10873;51.132;16.848;2022-11-20T12:12:44;23.90;42.60
21425;DHT22;10873;51.132;16.848;2022-11-20T12:15:19;24.00;42.60
21425;DHT22;10873;51.132;16.848;2022-11-20T12:17:48;23.90;42.50
21425;DHT22;10873;51.132;16.848;2022-11-20T12:20:16;24.00;42.50
21425;DHT22;10873;51.132;16.848;2022-11-20T12:22:48;23.90;42.40
21425;DHT22;10873;51.132;16.848;2022-11-20T12:25:20;24.00;42.50
21425;DHT22;10873;51.132;16.848;2022-11-20T12:28:18;23.90;42.50
21425;DHT22;10873;51.132;16.848;2022-11-20T12:30:56;24.00;42.60
21425;DHT22;10873;51.132;16.848;2022-11-20T12:33:44;24.00;42.50
21425;DHT22;10873;51.132;16.848;2022-11-20T12:36:22;24.00;42.30
21425;DHT22;10873;51.132;16.848;2022-11-20T12:39:11;24.00;42.30
21425;DHT22;10873;51.132;16.848;2022-11-20T12:41:55;24.00;42.20
21425;DHT22;10873;51.132;16.848;2022-11-20T12:45:02;23.90;42.20
21425;DHT22;10873;51.132;16.848;2022-11-20T12:47:44;23.90;42.20
21425;DHT22;10873;51.132;16.848;2022-11-20T12:50:19;23.90;42.30
21425;DHT22;10873;51.132;16.848;2022-11-20T12:52:52;24.00;42.50
21425;DHT22;10873;51.132;16.848;2022-11-20T12:55:36;24.00;42.50
21425;DHT22;10873;51.132;16.848;2022-11-20T12:58:09;24.00;42.50
21425;DHT22;10873;51.132;16.848;2022-11-20T13:00:40;24.00;42.60
21425;DHT22;10873;51.132;16.848;2022-11-20T13:03:32;24.00;42.50
21425;DHT22;10873;51.132;16.848;2022-11-20T13:06:05;24.00;42.50
21425;DHT22;10873;51.132;16.848;2022-11-20T13:08:34;24.00;42.40
21425;DHT22;10873;51.132;16.848;2022-11-20T13:11:07;24.10;42.40
21425;DHT22;10873;51.132;16.848;2022-11-20T13:13:40;24.00;42.30
21425;DHT22;10873;51.132;16.848;2022-11-20T13:16:12;24.10;42.40
21425;DHT22;10873;51.132;16.848;2022-11-20T13:18:41;24.10;42.50
21425;DHT22;10873;51.132;16.848;2022-11-20T13:21:18;24.10;42.40
21425;DHT22;10873;51.132;16.848;2022-11-20T13:23:47;24.10;42.40
21425;DHT22;10873;51.132;16.848;2022-11-20T13:26:17;24.10;42.50
21425;DHT22;10873;51.132;16.848;2022-11-20T13:28:43;24.10;42.50
21425;DHT22;10873;51.132;16.848;2022-11-20T13:31:30;24.10;42.60
21425;DHT22;10873;51.132;16.848;2022-11-20T13:33:58;24.10;42.70
21425;DHT22;10873;51.132;16.848;2022-11-20T13:36:27;24.00;42.70
21425;DHT22;10873;51.132;16.848;2022-11-20T13:38:56;24.10;42.80
21425;DHT22;10873;51.132;16.848;2022-11-20T13:41:26;24.00;42.90
21425;DHT22;10873;51.132;16.848;2022-11-20T13:44:09;24.00;42.90
21425;DHT22;10873;51.132;16.848;2022-11-20T13:46:38;24.00;42.90
21425;DHT22;10873;51.132;16.848;2022-11-20T13:49:10;24.00;43.00
21425;DHT22;10873;51.132;16.848;2022-11-20T13:51:42;24.00;43.10
21425;DHT22;10873;51.132;16.848;2022-11-20T13:54:37;24.00;43.20
21425;DHT22;10873;51.132;16.848;2022-11-20T13:57:25;24.00;43.20
21425;DHT22;10873;51.132;16.848;2022-11-20T13:59:58;24.00;43.00
21425;DHT22;10873;51.132;16.848;2022-11-20T14:02:27;24.00;42.80
21425;DHT22;10873;51.132;16.848;2022-11-20T14:04:57;24.00;42.70
21425;DHT22;10873;51.132;16.848;2022-11-20T14:07:31;24.00;42.90
21425;DHT22;10873;51.132;16.848;2022-11-20T14:10:00;24.00;43.10
21425;DHT22;10873;51.132;16.848;2022-11-20T14:12:29;24.00;43.30
21425;DHT22;10873;51.132;16.848;2022-11-20T14:14:55;24.00;43.60
21425;DHT22;10873;51.132;16.848;2022-11-20T14:17:23;24.00;43.90
21425;DHT22;10873;51.132;16.848;2022-11-20T14:19:52;24.00;44.20
21425;DHT22;10873;51.132;16.848;2022-11-20T14:22:20;24.00;44.30
21425;DHT22;10873;51.132;16.848;2022-11-20T14:24:47;24.00;44.50
21425;DHT22;10873;51.132;16.848;2022-11-20T14:27:17;24.00;44.60
21425;DHT22;10873;51.132;16.848;2022-11-20T14:29:44;24.10;44.70
21425;DHT22;10873;51.132;16.848;2022-11-20T14:32:11;24.10;44.80
21425;DHT22;10873;51.132;16.848;2022-11-20T14:34:41;24.10;44.80
21425;DHT22;10873;51.132;16.848;2022-11-20T14:37:12;24.10;44.90
21425;DHT22;10873;51.132;16.848;2022-11-20T14:39:41;24.10;44.90
21425;DHT22;10873;51.132;16.848;2022-11-20T14:42:16;24.10;44.90
21425;DHT22;10873;51.132;16.848;2022-11-20T14:44:43;24.10;44.90
21425;DHT22;10873;51.132;16.848;2022-11-20T14:47:12;24.20;44.90
21425;DHT22;10873;51.132;16.848;2022-11-20T14:49:40;24.20;44.90
21425;DHT22;10873;51.132;16.848;2022-11-20T14:52:12;24.20;44.80
21425;DHT22;10873;51.132;16.848;2022-11-20T14:54:44;24.20;44.70
21425;DHT22;10873;51.132;16.848;2022-11-20T14:57:21;24.20;44.70
21425;DHT22;10873;51.132;16.848;2022-11-20T14:59:48;24.20;44.70
21425;DHT22;10873;51.132;16.848;2022-11-20T15:02:14;24.10;44.60
21425;DHT22;10873;51.132;16.848;2022-11-20T15:04:45;24.20;44.70
21425;DHT22;10873;51.132;16.848;2022-11-20T15:07:11;24.10;44.60
21425;DHT22;10873;51.132;16.848;2022-11-20T15:09:37;24.20;44.60
21425;DHT22;10873;51.132;16.848;2022-11-20T15:12:04;24.10;44.50
21425;DHT22;10873;51.132;16.848;2022-11-20T15:14:32;24.10;44.50
21425;DHT22;10873;51.132;16.848;2022-11-20T15:16:59;24.10;44.40
21425;DHT22;10873;51.132;16.848;2022-11-20T15:19:26;24.10;44.40
21425;DHT22;10873;51.132;16.848;2022-11-20T15:21:52;24.10;44.30
21425;DHT22;10873;51.132;16.848;2022-11-20T15:24:19;24.00;44.20
21425;DHT22;10873;51.132;16.848;2022-11-20T15:26:45;24.00;44.20
21425;DHT22;10873;51.132;16.848;2022-11-20T15:29:13;24.00;44.20